createdAt,value
2018-04-26T00:03:12.164Z,4.53
2018-04-26T00:08:03.158Z,5.43
2018-04-26T00:12:55.106Z,6.60
2018-04-26T00:17:46.887Z,5.30
2018-04-26T00:22:37.878Z,6.30
2018-04-26T00:27:28.952Z,4.90
2018-04-26T00:32:20.003Z,4.83
2018-04-26T00:37:11.820Z,4.10
2018-04-26T00:42:02.815Z,7.33
2018-04-26T00:46:53.856Z,6.07
2018-04-26T00:51:59.482Z,9.37
2018-04-26T00:56:50.508Z,4.33
2018-04-26T01:01:41.555Z,4.30
2018-04-26T01:06:32.573Z,7.33
2018-04-26T01:11:23.598Z,6.77
2018-04-26T01:16:14.644Z,7.07
2018-04-26T01:21:05.692Z,6.07
2018-04-26T01:25:56.788Z,5.93
2018-04-26T01:30:47.807Z,8.10
2018-04-26T01:35:38.812Z,11.80
2018-04-26T01:40:29.840Z,7.03
2018-04-26T01:45:20.864Z,7.77
2018-04-26T01:50:12.033Z,7.73
2018-04-26T01:55:03.054Z,8.37
2018-04-26T01:59:54.059Z,9.43
2018-04-26T02:04:45.068Z,7.67
2018-04-26T02:09:36.193Z,9.80
2018-04-26T02:14:27.287Z,7.57
2018-04-26T02:19:18.309Z,6.93
2018-04-26T02:24:09.313Z,9.97
2018-04-26T02:29:01.087Z,10.00
2018-04-26T02:33:52.109Z,10.07
2018-04-26T02:38:43.099Z,8.70
2018-04-26T02:43:34.839Z,12.57
2018-04-26T02:48:26.734Z,12.23
2018-04-26T02:53:17.847Z,12.90
2018-04-26T02:58:08.864Z,13.13
2018-04-26T03:02:59.852Z,13.77
2018-04-26T03:07:51.618Z,15.87
2018-04-26T03:12:42.702Z,13.73
2018-04-26T03:17:33.722Z,12.57
2018-04-26T03:22:24.736Z,14.23
2018-04-26T03:27:15.751Z,11.87
2018-04-26T03:32:06.799Z,13.97
2018-04-26T03:36:58.602Z,13.07
2018-04-26T03:41:49.748Z,12.70
2018-04-26T03:46:40.763Z,14.47
2018-04-26T03:51:31.813Z,13.83
2018-04-26T03:56:22.849Z,14.63
2018-04-26T04:01:32.713Z,15.20
2018-04-26T04:06:24.499Z,13.37
2018-04-26T04:11:15.517Z,14.33
2018-04-26T04:16:06.596Z,14.10
2018-04-26T04:20:58.356Z,15.60
2018-04-26T04:25:50.104Z,13.40
2018-04-26T04:30:41.183Z,11.67
2018-04-26T04:35:32.220Z,13.13
2018-04-26T04:40:23.995Z,13.87
2018-04-26T04:45:15.033Z,11.83
2018-04-26T04:50:06.259Z,12.10
2018-04-26T04:54:57.296Z,11.03
2018-04-26T04:59:48.325Z,12.70
2018-04-26T05:04:39.331Z,12.63
2018-04-26T05:09:30.431Z,13.07
2018-04-26T05:14:21.542Z,12.20
2018-04-26T05:19:13.290Z,12.10
2018-04-26T05:24:04.307Z,10.73
2018-04-26T05:28:55.397Z,12.40
2018-04-26T05:33:46.501Z,11.27
2018-04-26T05:38:37.601Z,10.97
2018-04-26T05:43:28.650Z,10.87
2018-04-26T05:48:19.655Z,12.87
2018-04-26T05:53:10.651Z,13.07
2018-04-26T05:58:01.791Z,10.07
2018-04-26T06:02:52.841Z,13.27
2018-04-26T06:07:44.078Z,12.13
2018-04-26T06:12:35.094Z,12.20
2018-04-26T06:17:26.096Z,12.40
2018-04-26T06:22:17.189Z,15.77
2018-04-26T06:27:09.054Z,16.57
2018-04-26T06:32:00.085Z,16.00
2018-04-26T06:36:51.243Z,15.80
2018-04-26T06:41:42.211Z,13.67
2018-04-26T06:46:33.256Z,16.63
2018-04-26T06:51:24.257Z,17.13
2018-04-26T06:56:15.297Z,19.90
2018-04-26T07:01:06.346Z,17.93
2018-04-26T07:05:57.376Z,15.90
2018-04-26T07:10:48.378Z,15.83
2018-04-26T07:15:39.395Z,15.80
2018-04-26T07:20:30.430Z,14.87
2018-04-26T07:25:21.497Z,16.17
2018-04-26T07:30:13.322Z,20.53
2018-04-26T07:35:04.355Z,20.67
2018-04-26T07:39:56.240Z,17.10
2018-04-26T07:44:47.321Z,19.07
2018-04-26T07:49:38.463Z,17.57
2018-04-26T07:54:30.227Z,16.47
2018-04-26T07:59:21.277Z,19.50
2018-04-26T08:04:12.290Z,17.33
2018-04-26T08:09:03.378Z,22.17
2018-04-26T08:13:54.423Z,20.00
2018-04-26T08:18:45.432Z,22.33
2018-04-26T08:23:36.508Z,23.23
2018-04-26T08:28:28.455Z,29.60
2018-04-26T08:33:20.194Z,24.70
2018-04-26T08:38:11.388Z,25.73
2018-04-26T08:43:02.445Z,24.13
2018-04-26T08:47:53.590Z,18.90
2018-04-26T08:52:45.391Z,21.47
2018-04-26T08:57:36.484Z,19.60
2018-04-26T09:02:27.553Z,22.60
2018-04-26T09:07:18.644Z,19.53
2018-04-26T09:12:09.655Z,23.33
2018-04-26T09:17:00.738Z,20.53
2018-04-26T09:21:51.839Z,6.20
2018-04-26T09:26:42.941Z,6.27
2018-04-26T09:31:33.997Z,5.07
2018-04-26T09:36:25.059Z,6.00
2018-04-26T09:41:16.927Z,3.40
2018-04-26T09:46:07.945Z,4.63
2018-04-26T09:50:58.952Z,5.77
2018-04-26T09:55:50.709Z,5.40
2018-04-26T10:00:41.761Z,3.97
2018-04-26T10:05:38.887Z,6.73
2018-04-26T10:10:29.887Z,5.67
2018-04-26T10:15:21.972Z,4.47
2018-04-26T10:20:12.998Z,4.30
2018-04-26T10:25:04.072Z,4.60
2018-04-26T10:29:55.084Z,7.13
2018-04-26T10:34:46.148Z,3.97
2018-04-26T10:39:37.215Z,5.73
2018-04-26T10:44:28.336Z,3.90
2018-04-26T10:49:19.344Z,3.97
2018-04-26T10:54:10.376Z,4.43
2018-04-26T10:59:01.419Z,4.30
2018-04-26T11:03:52.417Z,3.80
2018-04-26T11:08:43.432Z,4.03
2018-04-26T11:13:34.515Z,3.63
2018-04-26T11:18:26.355Z,3.53
2018-04-26T11:23:18.156Z,3.43
2018-04-26T11:28:09.171Z,4.17
2018-04-26T11:33:00.193Z,4.03
2018-04-26T11:37:51.243Z,2.33
2018-04-26T11:42:42.319Z,3.60
2018-04-26T11:47:33.534Z,4.83
2018-04-26T11:52:25.414Z,4.93
2018-04-26T11:57:16.411Z,2.37
2018-04-26T12:02:07.476Z,3.57
2018-04-26T12:06:58.531Z,3.53
2018-04-26T12:11:49.578Z,2.80
2018-04-26T12:16:40.624Z,2.43
2018-04-26T12:21:31.748Z,3.00
2018-04-26T12:26:22.785Z,3.50
2018-04-26T12:31:13.880Z,2.97
2018-04-26T12:36:04.893Z,3.83
2018-04-26T12:40:56.731Z,2.93
2018-04-26T12:45:48.526Z,3.57
2018-04-26T12:50:39.656Z,6.10
2018-04-26T12:55:30.798Z,4.47
2018-04-26T13:00:21.859Z,8.90
2018-04-26T13:05:13.663Z,5.47
2018-04-26T13:10:04.677Z,3.63
2018-04-26T13:14:55.867Z,3.83
2018-04-26T13:19:46.928Z,3.40
2018-04-26T13:24:37.932Z,5.27
2018-04-26T13:29:28.984Z,2.93
2018-04-26T13:34:20.010Z,4.57
2018-04-26T13:39:11.050Z,3.07
2018-04-26T13:44:02.831Z,3.60
2018-04-26T13:48:53.878Z,2.70
2018-04-26T13:53:44.907Z,2.97
2018-04-26T13:58:35.911Z,10.47
2018-04-26T14:03:27.028Z,3.07
2018-04-26T14:08:18.045Z,3.20
2018-04-26T14:13:09.076Z,3.17
2018-04-26T14:18:00.071Z,2.10
2018-04-26T14:22:51.126Z,2.53
2018-04-26T14:27:42.162Z,2.67
2018-04-26T14:32:33.163Z,2.00
2018-04-26T14:37:24.423Z,1.70
2018-04-26T14:42:15.384Z,3.07
2018-04-26T14:47:06.470Z,2.63
2018-04-26T14:51:57.640Z,2.00
2018-04-26T14:56:48.675Z,3.07
2018-04-26T15:01:39.982Z,2.53
2018-04-26T15:06:31.915Z,1.83
2018-04-26T15:11:23.690Z,1.83
2018-04-26T15:16:14.731Z,3.70
2018-04-26T15:21:05.771Z,3.03
2018-04-26T15:25:56.823Z,2.17
2018-04-26T15:30:48.579Z,2.33
2018-04-26T15:35:40.388Z,2.87
2018-04-26T15:40:31.469Z,3.13
2018-04-26T15:45:22.500Z,2.90
2018-04-26T15:50:13.602Z,3.00
2018-04-26T15:55:23.304Z,4.77
2018-04-26T16:00:33.292Z,4.17
2018-04-26T16:05:43.079Z,4.03
2018-04-26T16:10:59.760Z,2.07
2018-04-26T16:16:12.671Z,3.60
2018-04-26T16:21:28.880Z,2.70
2018-04-26T16:26:38.894Z,2.50
2018-04-26T16:37:42.794Z,3.30
2018-04-26T16:42:34.625Z,1.80
2018-04-26T16:47:26.413Z,2.53
2018-04-26T16:52:17.465Z,3.43
2018-04-26T16:57:10.004Z,2.67
2018-04-26T17:02:01.110Z,4.17
2018-04-26T17:06:52.183Z,8.03
2018-04-26T17:11:43.215Z,3.10
2018-04-26T17:16:34.277Z,2.40
2018-04-26T17:21:25.427Z,3.10
2018-04-26T17:26:16.504Z,2.83
2018-04-26T17:31:08.344Z,2.87
2018-04-26T17:36:00.185Z,3.67
2018-04-26T17:40:51.235Z,8.20
2018-04-26T17:45:42.341Z,4.77
2018-04-26T17:50:33.352Z,3.20
2018-04-26T17:55:25.302Z,3.90
2018-04-26T18:00:16.373Z,5.67
2018-04-26T18:05:07.530Z,4.13
2018-04-26T18:09:58.551Z,2.40
2018-04-26T18:14:50.585Z,3.37
2018-04-26T18:19:41.778Z,4.80
2018-04-26T18:24:32.810Z,4.73
2018-04-26T18:29:23.928Z,2.23
2018-04-26T18:34:16.963Z,2.80
2018-04-26T18:39:05.988Z,3.47
2018-04-26T18:43:57.048Z,4.43
2018-04-26T18:48:48.085Z,3.50
2018-04-26T18:53:39.915Z,2.50
2018-04-26T18:58:30.949Z,4.77
2018-04-26T19:03:22.754Z,4.97
2018-04-26T19:08:13.747Z,5.57
2018-04-26T19:13:04.768Z,3.33
2018-04-26T19:17:55.792Z,2.20
2018-04-26T19:22:46.868Z,4.47
2018-04-26T19:27:37.887Z,4.33
2018-04-26T19:32:28.900Z,4.03
2018-04-26T19:37:19.988Z,5.17
2018-04-26T19:42:11.048Z,2.47
2018-04-26T19:47:02.203Z,3.63
2018-04-26T19:51:53.960Z,2.97
2018-04-26T19:56:52.048Z,5.03
2018-04-26T20:01:43.124Z,3.30
2018-04-26T20:06:34.120Z,4.60
2018-04-26T20:11:25.281Z,2.97
2018-04-26T20:16:16.398Z,2.90
2018-04-26T20:21:07.540Z,2.60
2018-04-26T20:25:59.273Z,4.47
2018-04-26T20:30:50.351Z,5.53
2018-04-26T20:35:41.424Z,4.23
2018-04-26T20:40:32.559Z,3.37
2018-04-26T20:45:23.577Z,3.87
2018-04-26T20:50:15.422Z,4.77
2018-04-26T20:55:06.496Z,4.30
2018-04-26T20:59:57.532Z,3.00
2018-04-26T21:04:48.547Z,3.93
2018-04-26T21:09:39.560Z,4.33
2018-04-26T21:14:30.696Z,3.83
2018-04-26T21:19:21.794Z,4.40
2018-04-26T21:24:12.867Z,3.20
2018-04-26T21:29:03.884Z,5.50
2018-04-26T21:33:55.454Z,4.33
2018-04-26T21:38:47.257Z,2.80
2018-04-26T21:43:38.291Z,2.77
2018-04-26T21:48:29.313Z,3.50
2018-04-26T21:53:26.498Z,3.87
2018-04-26T21:58:23.677Z,4.50
2018-04-26T22:03:17.620Z,3.70
2018-04-26T22:08:08.653Z,3.93
2018-04-26T22:12:59.665Z,2.80
2018-04-26T22:17:50.736Z,3.80
2018-04-26T22:22:41.770Z,4.37
2018-04-26T22:27:32.845Z,2.60
2018-04-26T22:32:23.865Z,3.53
2018-04-26T22:37:14.871Z,3.80
2018-04-26T22:42:05.932Z,4.40
2018-04-26T22:46:56.999Z,9.17
2018-04-26T22:51:48.024Z,5.50
2018-04-26T22:56:39.039Z,3.87
2018-04-26T23:01:30.904Z,3.83
2018-04-26T23:06:22.006Z,4.67
2018-04-26T23:11:13.760Z,8.23
2018-04-26T23:16:04.771Z,4.37
2018-04-26T23:20:56.585Z,5.30
2018-04-26T23:25:47.584Z,4.70
2018-04-26T23:30:38.595Z,6.90
2018-04-26T23:35:29.613Z,6.83
2018-04-26T23:40:20.826Z,8.57
2018-04-26T23:45:11.915Z,7.13
2018-04-26T23:50:03.651Z,5.17
2018-04-26T23:54:55.487Z,5.90
2018-04-26T23:59:46.496Z,4.90
